Time;durP1;ratioP1;P1;durP2;ratioP2;P2;SDS_P1;SDS_P2;PMS_P1;PMS_P2;Temp;Humidity;BMP_temperature;BMP_pressure;BME280_temperature;BME280_humidity;BME280_pressure;Samples;Min_cycle;Max_cycle;Signal;HPM_P1;HPM_P2
2022/12/23 00:06:09;;;;;;;0.20;0.00;;;14.10;99.90;;;;;;20877566;28;20414;-83
2022/12/23 00:16:14;;;;;;;0.20;0.10;;;13.90;99.90;;;;;;20877395;28;20490;-81
2022/12/23 00:26:21;;;;;;;0.20;0.00;;;13.40;99.90;;;;;;20894522;28;20972;-83
2022/12/23 00:36:27;;;;;;;0.20;0.10;;;13.10;99.90;;;;;;20894441;28;20400;-74
2022/12/23 00:46:33;;;;;;;0.20;0.10;;;12.80;99.90;;;;;;20893690;28;20418;-81
2022/12/23 00:56:36;;;;;;;0.20;0.00;;;12.30;99.90;;;;;;20885559;28;20410;-80
2022/12/23 01:06:42;;;;;;;0.20;0.00;;;12.10;99.90;;;;;;20907611;28;20408;-80
2022/12/23 01:16:46;;;;;;;0.20;0.00;;;12.00;99.90;;;;;;20872279;28;20422;-79
2022/12/23 01:26:51;;;;;;;0.20;0.10;;;11.80;99.90;;;;;;20872354;28;20462;-81
2022/12/23 01:36:55;;;;;;;0.20;0.10;;;11.90;99.90;;;;;;20887464;28;20491;-79
2022/12/23 01:47:00;;;;;;;0.20;0.10;;;12.20;99.90;;;;;;20870209;28;20426;-80
2022/12/23 01:57:04;;;;;;;0.20;0.10;;;12.90;99.90;;;;;;20869918;28;20504;-79
2022/12/23 02:17:43;;;;;;;0.20;0.10;;;13.10;99.90;;;;;;20868529;28;20933;-80
2022/12/23 02:28:06;;;;;;;0.20;0.10;;;13.20;99.90;;;;;;20867172;28;20842;-80
2022/12/23 02:38:14;;;;;;;0.20;0.10;;;13.10;99.90;;;;;;20882299;28;20384;-80
2022/12/23 02:48:25;;;;;;;0.20;0.10;;;13.30;99.90;;;;;;20882648;28;20976;-80
2022/12/23 02:58:35;;;;;;;0.20;0.10;;;13.00;99.90;;;;;;20864771;28;20404;-80
2022/12/23 03:08:43;;;;;;;0.20;0.00;;;12.50;99.90;;;;;;20880835;28;20767;-80
2022/12/23 03:18:59;;;;;;;0.20;0.10;;;12.20;99.90;;;;;;20864336;28;20556;-80
2022/12/23 03:29:12;;;;;;;0.20;0.10;;;12.30;99.90;;;;;;20871093;28;20411;-80
2022/12/23 03:39:19;;;;;;;0.20;0.00;;;12.00;99.90;;;;;;20880473;28;20403;-79
2022/12/23 03:49:27;;;;;;;0.20;0.10;;;11.90;99.90;;;;;;20861156;28;20411;-80
2022/12/23 03:59:35;;;;;;;0.20;0.00;;;12.00;99.90;;;;;;20877847;28;20404;-81
2022/12/23 04:09:40;;;;;;;0.20;0.00;;;11.50;99.90;;;;;;20878261;28;20826;-82
2022/12/23 04:19:46;;;;;;;0.20;0.00;;;11.60;99.90;;;;;;20860589;28;20779;-82
2022/12/23 04:29:50;;;;;;;0.20;0.00;;;11.40;99.90;;;;;;20885666;28;20822;-82
2022/12/23 04:39:55;;;;;;;0.20;0.10;;;11.70;99.90;;;;;;20810139;28;20412;-83
2022/12/23 04:49:59;;;;;;;0.20;0.10;;;11.70;99.90;;;;;;20808907;28;20423;-80
2022/12/23 05:00:05;;;;;;;0.20;0.10;;;11.90;99.90;;;;;;20808006;28;20884;-80
2022/12/23 05:10:10;;;;;;;0.20;0.00;;;11.90;99.90;;;;;;20800187;28;20410;-81
2022/12/23 05:20:15;;;;;;;0.20;0.10;;;12.10;99.90;;;;;;20820730;28;20475;-81
2022/12/23 05:30:19;;;;;;;0.20;0.10;;;12.50;99.90;;;;;;20821181;28;20448;-81
2022/12/23 05:40:25;;;;;;;0.20;0.00;;;11.70;99.90;;;;;;20808250;28;20729;-76
2022/12/23 05:50:35;;;;;;;0.20;0.10;;;12.00;99.90;;;;;;20808097;28;20431;-81
2022/12/23 06:00:40;;;;;;;0.20;0.00;;;11.60;99.90;;;;;;20804952;28;20413;-81
2022/12/23 13:33:10;;;;;;;0.20;0.00;;;23.10;99.90;;;;;;20981515;28;20410;-73
2022/12/23 13:43:19;;;;;;;0.20;0.00;;;23.10;99.90;;;;;;20963196;28;20443;-73
2022/12/23 13:53:35;;;;;;;0.20;0.00;;;23.70;99.90;;;;;;20868330;28;20411;-74
2022/12/23 14:03:40;;;;;;;0.20;0.00;;;24.00;99.90;;;;;;20901504;28;20759;-74
2022/12/23 14:13:54;;;;;;;0.20;0.00;;;24.50;99.90;;;;;;20867477;28;20466;-75
2022/12/23 14:24:14;;;;;;;0.20;0.00;;;24.60;99.90;;;;;;20865523;28;20491;-74
2022/12/23 14:34:30;;;;;;;0.20;0.00;;;24.80;99.90;;;;;;20900483;28;20770;-75
2022/12/23 14:44:48;;;;;;;0.20;0.00;;;24.20;99.90;;;;;;20881644;28;20435;-74
2022/12/23 14:54:53;;;;;;;0.20;0.00;;;23.30;99.90;;;;;;20898982;28;20427;-73
2022/12/23 15:05:22;;;;;;;0.20;0.00;;;22.90;99.90;;;;;;20877593;28;20480;-77
2022/12/23 15:15:32;;;;;;;0.20;0.05;;;23.20;99.90;;;;;;20869163;28;20419;-75
2022/12/23 15:25:40;;;;;;;0.20;0.00;;;23.70;99.90;;;;;;20870751;28;21074;-73
2022/12/23 15:35:45;;;;;;;0.20;0.00;;;23.90;99.90;;;;;;20967994;28;20404;-76
2022/12/23 15:45:51;;;;;;;0.20;0.00;;;22.50;99.90;;;;;;20998385;28;20423;-76
2022/12/23 15:55:56;;;;;;;0.20;0.00;;;22.10;99.90;;;;;;20856936;28;20466;-75
2022/12/23 16:06:17;;;;;;;0.20;0.00;;;21.40;99.90;;;;;;20872653;28;20412;-76
2022/12/23 16:16:37;;;;;;;0.20;0.10;;;21.00;99.90;;;;;;20913842;28;20761;-72
2022/12/23 16:26:43;;;;;;;0.20;0.00;;;20.70;99.90;;;;;;20963141;28;20813;-75
2022/12/23 16:36:48;;;;;;;0.20;0.00;;;20.60;99.90;;;;;;20986184;28;20410;-71
2022/12/23 16:46:52;;;;;;;0.20;0.00;;;20.20;99.90;;;;;;21003095;28;21044;-72
2022/12/23 16:56:58;;;;;;;0.20;0.00;;;19.90;99.90;;;;;;20963335;28;20414;-75
2022/12/23 17:07:01;;;;;;;0.20;0.00;;;19.80;99.90;;;;;;20984152;28;20497;-76
2022/12/23 17:17:14;;;;;;;0.20;0.10;;;19.60;99.90;;;;;;20942335;28;20446;-74
2022/12/23 17:27:20;;;;;;;0.20;0.08;;;19.40;99.90;;;;;;20980868;28;20406;-75
2022/12/23 17:37:25;;;;;;;0.20;0.00;;;19.30;99.90;;;;;;20964086;28;20418;-75
2022/12/23 17:47:29;;;;;;;0.20;0.07;;;19.20;99.90;;;;;;20965998;28;20398;-74
2022/12/23 17:57:34;;;;;;;0.20;0.00;;;18.90;99.90;;;;;;20977482;28;20436;-76
2022/12/23 18:07:38;;;;;;;0.20;0.00;;;18.70;99.90;;;;;;20964892;28;20398;-75
2022/12/23 18:17:43;;;;;;;0.20;0.10;;;18.50;99.90;;;;;;20983744;28;20444;-74
2022/12/23 18:27:47;;;;;;;0.20;0.10;;;18.50;99.90;;;;;;20897975;28;20434;-74
2022/12/23 18:37:52;;;;;;;0.20;0.00;;;18.40;99.90;;;;;;20900920;28;20778;-76
2022/12/23 18:47:56;;;;;;;0.20;0.00;;;18.30;99.90;;;;;;20879287;28;20421;-77
2022/12/23 18:58:01;;;;;;;0.20;0.00;;;18.20;99.90;;;;;;20880562;28;20443;-76
2022/12/23 19:08:05;;;;;;;0.20;0.10;;;18.00;99.90;;;;;;20897295;28;20495;-73
2022/12/23 19:18:14;;;;;;;0.20;0.00;;;18.00;99.90;;;;;;20892086;28;20396;-75
2022/12/23 19:28:17;;;;;;;0.20;0.03;;;17.80;99.90;;;;;;20986957;28;20455;-75
2022/12/23 19:38:22;;;;;;;0.20;0.00;;;17.80;99.90;;;;;;20977264;28;20398;-74
2022/12/23 19:48:27;;;;;;;0.20;0.10;;;17.70;99.90;;;;;;20976563;28;20420;-77
2022/12/23 19:58:35;;;;;;;0.20;0.00;;;17.60;99.90;;;;;;20936852;28;20456;-76
2022/12/23 20:08:39;;;;;;;0.20;0.00;;;17.40;99.90;;;;;;20991315;28;20436;-75
2022/12/23 20:18:44;;;;;;;0.20;0.00;;;17.40;99.90;;;;;;21017933;28;20402;-76
2022/12/23 20:28:48;;;;;;;0.20;0.10;;;17.30;99.90;;;;;;20974149;28;20970;-76
2022/12/23 20:38:53;;;;;;;0.20;0.10;;;17.10;99.90;;;;;;20997141;28;20406;-76
2022/12/23 20:48:57;;;;;;;0.20;0.10;;;16.80;99.90;;;;;;20957886;28;20769;-75
2022/12/23 20:59:02;;;;;;;0.20;0.10;;;16.90;99.90;;;;;;20958081;28;20733;-77
2022/12/23 21:09:08;;;;;;;0.20;0.00;;;16.70;99.90;;;;;;21003371;28;20409;-75
2022/12/23 21:19:17;;;;;;;0.20;0.03;;;16.60;99.90;;;;;;21029274;28;20408;-75
2022/12/23 21:29:21;;;;;;;0.20;0.10;;;16.90;99.90;;;;;;21009223;28;20404;-73
2022/12/23 21:39:27;;;;;;;0.20;0.10;;;17.20;99.90;;;;;;20992388;28;20740;-69
2022/12/23 21:49:31;;;;;;;0.20;0.10;;;17.20;99.90;;;;;;20990588;28;20495;-75
2022/12/23 21:59:37;;;;;;;0.20;0.10;;;17.20;99.90;;;;;;20903173;28;20396;-76
2022/12/23 22:09:40;;;;;;;0.20;0.00;;;17.00;99.90;;;;;;20900501;28;20413;-76
2022/12/23 22:19:45;;;;;;;0.20;0.00;;;17.00;99.90;;;;;;20949304;28;20402;-77
2022/12/23 22:29:50;;;;;;;0.20;0.00;;;17.00;99.90;;;;;;20966109;28;20869;-76
2022/12/23 22:39:55;;;;;;;0.20;0.10;;;16.90;99.90;;;;;;20983229;28;20417;-79
2022/12/23 22:49:59;;;;;;;0.20;0.10;;;16.80;99.90;;;;;;20985513;28;20972;-77
2022/12/23 23:00:05;;;;;;;0.20;0.07;;;16.70;99.90;;;;;;20989048;28;20409;-78
2022/12/23 23:10:15;;;;;;;0.20;0.00;;;16.60;99.90;;;;;;20985303;28;20418;-75
2022/12/23 23:20:20;;;;;;;0.20;0.10;;;16.80;99.90;;;;;;20963117;28;20396;-76
2022/12/23 23:30:24;;;;;;;0.20;0.10;;;16.40;99.90;;;;;;20979570;28;20410;-77
2022/12/23 23:40:29;;;;;;;0.20;0.10;;;16.20;99.90;;;;;;20902574;28;20407;-77
2022/12/23 23:50:33;;;;;;;0.20;0.00;;;16.20;99.90;;;;;;20896757;28;20816;-79
